Главная страница
METAR-TAF:

METAR-TAF

Аэропорты :

Каракас, Венесуэла

широта: 10-36N, долгота: 066-59W, высота над уровнем моря: 43 м

Текущие метеонаблюдения

Эта сводка был подготовлена 54 минут назад, в 13:00 UTC
Штиль
Температура 26°C
Влажность 74%
Давление 1009 hPa
Видимость 10 км и более
Отдельные облака на высоте 1600 фута
Отдельные облака на высоте 7000 фута

METAR: SVMI 221300Z 00000KT 9999 SCT016 SCT070 26/21 Q1009

Время: 09:54 (13:54 UTC)

Прогноз

Эта сводка был подготовлена 3 часа и 54 минут назад, в 10:00 UTC
Прогноз действительный с 22-го 12 UTC до 23-го 12 UTC
Ветер Узел от северный
Видимость 10 км и более
небольшая облачность на высоте 1600 фута
изменения
С 22-го 12 UTC до 22-го 16 UTC
Ветер 4 Узел от восточно-северо-восточный
Видимость 10 км и более
Отдельные облака на высоте 1600 фута

TAF: SVMI 221000Z 2212/2312 00000KT 9999 FEW016 TX33/18Z TN25/09Z BECMG 2212/2216 07004KT 9999 SCT016

Метеонаблюдения и прогнозы для более 4000 аэропортов (сводки METAR и TAF).

Имеющиеся станции представлены на карте желтыми и красными точками.

Чтобы увидеть название станции, наведите на нее мышь.

Затем щелкните, чтобы увидеть метеонаблюдения и метеопрогнозы.

Управление картой: чтобы увеличить масштаб, щелкните зеленые кнопки с черным крестиком; чтобы уменьшить масштаб, щелкните зеленую кнопку с тире; для просмотра соседних карт щелкайте зеленые стрелки.


METAR-TAF: